sensor_id;sensor_type;location;lat;lon;timestamp;temperature;humidity
20457;DHT22;10387;51.102;6.848;2023-03-23T00:00:38;13.20;99.90
20457;DHT22;10387;51.102;6.848;2023-03-23T00:03:04;13.20;99.90
20457;DHT22;10387;51.102;6.848;2023-03-23T00:05:29;13.20;99.90
20457;DHT22;10387;51.102;6.848;2023-03-23T00:07:55;13.20;99.90
20457;DHT22;10387;51.102;6.848;2023-03-23T00:10:21;13.30;99.90
20457;DHT22;10387;51.102;6.848;2023-03-23T00:12:49;13.20;99.90
20457;DHT22;10387;51.102;6.848;2023-03-23T00:15:15;13.30;99.90
20457;DHT22;10387;51.102;6.848;2023-03-23T00:17:42;13.30;99.90
20457;DHT22;10387;51.102;6.848;2023-03-23T00:20:08;13.30;99.90
20457;DHT22;10387;51.102;6.848;2023-03-23T00:22:37;13.30;99.90
20457;DHT22;10387;51.102;6.848;2023-03-23T00:25:03;13.30;99.90
20457;DHT22;10387;51.102;6.848;2023-03-23T00:27:29;13.30;99.90
20457;DHT22;10387;51.102;6.848;2023-03-23T00:29:54;13.30;99.90
20457;DHT22;10387;51.102;6.848;2023-03-23T00:32:21;13.30;99.90
20457;DHT22;10387;51.102;6.848;2023-03-23T00:34:57;13.30;99.90
20457;DHT22;10387;51.102;6.848;2023-03-23T00:37:26;13.30;99.90
20457;DHT22;10387;51.102;6.848;2023-03-23T00:39:52;13.30;99.90
20457;DHT22;10387;51.102;6.848;2023-03-23T00:42:22;13.30;99.90
20457;DHT22;10387;51.102;6.848;2023-03-23T00:44:48;13.30;99.90
20457;DHT22;10387;51.102;6.848;2023-03-23T00:47:16;13.20;99.90
20457;DHT22;10387;51.102;6.848;2023-03-23T00:49:43;13.30;99.90
20457;DHT22;10387;51.102;6.848;2023-03-23T00:52:09;13.30;99.90
20457;DHT22;10387;51.102;6.848;2023-03-23T00:54:34;13.30;99.90
20457;DHT22;10387;51.102;6.848;2023-03-23T00:57:03;13.30;99.90
20457;DHT22;10387;51.102;6.848;2023-03-23T00:59:29;13.30;99.90
20457;DHT22;10387;51.102;6.848;2023-03-23T01:01:54;13.30;99.90
20457;DHT22;10387;51.102;6.848;2023-03-23T01:04:20;13.30;99.90
20457;DHT22;10387;51.102;6.848;2023-03-23T01:06:48;13.20;99.90
20457;DHT22;10387;51.102;6.848;2023-03-23T01:09:16;13.30;99.90
20457;DHT22;10387;51.102;6.848;2023-03-23T01:11:48;13.30;99.90
20457;DHT22;10387;51.102;6.848;2023-03-23T01:14:15;13.30;99.90
20457;DHT22;10387;51.102;6.848;2023-03-23T01:16:41;13.30;99.90
20457;DHT22;10387;51.102;6.848;2023-03-23T01:19:07;13.20;99.90
20457;DHT22;10387;51.102;6.848;2023-03-23T01:21:33;13.20;99.90
20457;DHT22;10387;51.102;6.848;2023-03-23T01:23:58;13.20;99.90
20457;DHT22;10387;51.102;6.848;2023-03-23T01:26:25;13.20;99.90
20457;DHT22;10387;51.102;6.848;2023-03-23T01:28:51;13.10;99.90
20457;DHT22;10387;51.102;6.848;2023-03-23T01:31:19;13.10;99.90
20457;DHT22;10387;51.102;6.848;2023-03-23T01:33:45;13.00;99.90
20457;DHT22;10387;51.102;6.848;2023-03-23T01:36:12;12.90;99.90
20457;DHT22;10387;51.102;6.848;2023-03-23T01:38:40;12.90;99.90
20457;DHT22;10387;51.102;6.848;2023-03-23T01:41:06;12.90;99.90
20457;DHT22;10387;51.102;6.848;2023-03-23T01:43:32;12.80;99.90
20457;DHT22;10387;51.102;6.848;2023-03-23T01:45:58;12.70;99.90
20457;DHT22;10387;51.102;6.848;2023-03-23T01:50:57;12.60;99.90
20457;DHT22;10387;51.102;6.848;2023-03-23T01:53:25;12.50;99.90
20457;DHT22;10387;51.102;6.848;2023-03-23T01:55:52;12.60;99.90
20457;DHT22;10387;51.102;6.848;2023-03-23T01:58:19;12.50;99.90
20457;DHT22;10387;51.102;6.848;2023-03-23T02:00:46;12.50;99.90
20457;DHT22;10387;51.102;6.848;2023-03-23T02:03:13;12.50;99.90
20457;DHT22;10387;51.102;6.848;2023-03-23T02:05:41;12.50;99.90
20457;DHT22;10387;51.102;6.848;2023-03-23T02:08:13;12.40;99.90
20457;DHT22;10387;51.102;6.848;2023-03-23T02:10:39;12.30;99.90
20457;DHT22;10387;51.102;6.848;2023-03-23T02:13:06;12.30;99.90
20457;DHT22;10387;51.102;6.848;2023-03-23T02:15:55;12.20;99.90
20457;DHT22;10387;51.102;6.848;2023-03-23T02:18:28;12.20;99.90
20457;DHT22;10387;51.102;6.848;2023-03-23T02:36:30;11.70;99.90
20457;DHT22;10387;51.102;6.848;2023-03-23T02:39:22;11.70;99.90
20457;DHT22;10387;51.102;6.848;2023-03-23T02:44:15;11.60;99.90
20457;DHT22;10387;51.102;6.848;2023-03-23T02:46:42;11.60;99.90
20457;DHT22;10387;51.102;6.848;2023-03-23T02:49:11;11.60;99.90
20457;DHT22;10387;51.102;6.848;2023-03-23T02:51:38;11.50;99.90
20457;DHT22;10387;51.102;6.848;2023-03-23T02:54:04;11.50;99.90
20457;DHT22;10387;51.102;6.848;2023-03-23T02:56:30;11.60;99.90
20457;DHT22;10387;51.102;6.848;2023-03-23T02:58:58;11.60;99.90
20457;DHT22;10387;51.102;6.848;2023-03-23T03:03:58;11.60;99.90
20457;DHT22;10387;51.102;6.848;2023-03-23T03:08:57;11.70;99.90
20457;DHT22;10387;51.102;6.848;2023-03-23T03:11:25;11.80;99.90
20457;DHT22;10387;51.102;6.848;2023-03-23T03:16:22;11.80;99.90
20457;DHT22;10387;51.102;6.848;2023-03-23T03:18:54;11.80;99.90
20457;DHT22;10387;51.102;6.848;2023-03-23T03:21:24;11.80;99.90
20457;DHT22;10387;51.102;6.848;2023-03-23T03:23:55;11.80;99.90
20457;DHT22;10387;51.102;6.848;2023-03-23T03:26:24;11.80;99.90
20457;DHT22;10387;51.102;6.848;2023-03-23T03:28:54;11.90;99.90
20457;DHT22;10387;51.102;6.848;2023-03-23T03:31:22;11.90;99.90
20457;DHT22;10387;51.102;6.848;2023-03-23T03:33:49;11.90;99.90
20457;DHT22;10387;51.102;6.848;2023-03-23T03:36:15;12.00;99.90
20457;DHT22;10387;51.102;6.848;2023-03-23T03:38:42;12.00;99.90
20457;DHT22;10387;51.102;6.848;2023-03-23T03:41:08;12.10;99.90
20457;DHT22;10387;51.102;6.848;2023-03-23T03:43:34;12.20;99.90
20457;DHT22;10387;51.102;6.848;2023-03-23T03:46:00;12.20;99.90
20457;DHT22;10387;51.102;6.848;2023-03-23T03:48:26;12.30;99.90
20457;DHT22;10387;51.102;6.848;2023-03-23T03:50:52;12.30;99.90
20457;DHT22;10387;51.102;6.848;2023-03-23T03:53:18;12.40;99.90
20457;DHT22;10387;51.102;6.848;2023-03-23T03:55:44;12.40;99.90
20457;DHT22;10387;51.102;6.848;2023-03-23T03:58:11;12.30;99.90
20457;DHT22;10387;51.102;6.848;2023-03-23T04:01:13;12.30;99.90
20457;DHT22;10387;51.102;6.848;2023-03-23T04:03:40;12.30;99.90
20457;DHT22;10387;51.102;6.848;2023-03-23T04:06:25;12.30;99.90
20457;DHT22;10387;51.102;6.848;2023-03-23T04:08:57;12.20;99.90
20457;DHT22;10387;51.102;6.848;2023-03-23T04:11:24;12.10;99.90
20457;DHT22;10387;51.102;6.848;2023-03-23T04:13:51;12.10;99.90
20457;DHT22;10387;51.102;6.848;2023-03-23T04:16:21;12.10;99.90
20457;DHT22;10387;51.102;6.848;2023-03-23T04:18:48;12.10;99.90
20457;DHT22;10387;51.102;6.848;2023-03-23T04:21:16;12.10;99.90
20457;DHT22;10387;51.102;6.848;2023-03-23T04:23:45;12.00;99.90
20457;DHT22;10387;51.102;6.848;2023-03-23T04:26:11;12.10;99.90
20457;DHT22;10387;51.102;6.848;2023-03-23T04:28:41;12.10;99.90
20457;DHT22;10387;51.102;6.848;2023-03-23T04:31:25;12.00;99.90
20457;DHT22;10387;51.102;6.848;2023-03-23T04:33:58;12.00;99.90
20457;DHT22;10387;51.102;6.848;2023-03-23T04:36:29;11.90;99.90
20457;DHT22;10387;51.102;6.848;2023-03-23T04:39:02;11.90;99.90
20457;DHT22;10387;51.102;6.848;2023-03-23T04:41:29;11.80;99.90
20457;DHT22;10387;51.102;6.848;2023-03-23T04:44:08;11.80;99.90
20457;DHT22;10387;51.102;6.848;2023-03-23T04:46:40;11.70;99.90
20457;DHT22;10387;51.102;6.848;2023-03-23T04:49:09;11.70;99.90
20457;DHT22;10387;51.102;6.848;2023-03-23T04:51:39;11.70;99.90
20457;DHT22;10387;51.102;6.848;2023-03-23T04:54:28;11.80;99.90
20457;DHT22;10387;51.102;6.848;2023-03-23T04:56:57;11.90;99.90
20457;DHT22;10387;51.102;6.848;2023-03-23T04:59:24;11.90;99.90
20457;DHT22;10387;51.102;6.848;2023-03-23T05:02:13;11.90;99.90
20457;DHT22;10387;51.102;6.848;2023-03-23T05:04:42;12.00;99.90
20457;DHT22;10387;51.102;6.848;2023-03-23T05:07:12;12.00;99.90
20457;DHT22;10387;51.102;6.848;2023-03-23T05:09:46;12.10;99.90
20457;DHT22;10387;51.102;6.848;2023-03-23T05:12:11;12.10;99.90
20457;DHT22;10387;51.102;6.848;2023-03-23T05:14:48;12.10;99.90
20457;DHT22;10387;51.102;6.848;2023-03-23T05:17:17;12.20;99.90
20457;DHT22;10387;51.102;6.848;2023-03-23T05:19:44;12.20;99.90
20457;DHT22;10387;51.102;6.848;2023-03-23T05:22:29;12.20;99.90
20457;DHT22;10387;51.102;6.848;2023-03-23T05:24:58;12.40;99.90
20457;DHT22;10387;51.102;6.848;2023-03-23T05:27:24;12.30;99.90
20457;DHT22;10387;51.102;6.848;2023-03-23T05:29:55;12.40;99.90
20457;DHT22;10387;51.102;6.848;2023-03-23T05:32:21;12.40;99.90
20457;DHT22;10387;51.102;6.848;2023-03-23T05:34:59;12.40;99.90
20457;DHT22;10387;51.102;6.848;2023-03-23T05:37:26;12.30;99.90
20457;DHT22;10387;51.102;6.848;2023-03-23T05:39:58;12.30;99.90
20457;DHT22;10387;51.102;6.848;2023-03-23T05:42:39;12.40;99.90
20457;DHT22;10387;51.102;6.848;2023-03-23T05:45:18;12.50;99.90
20457;DHT22;10387;51.102;6.848;2023-03-23T05:47:46;12.40;99.90
20457;DHT22;10387;51.102;6.848;2023-03-23T05:50:17;12.30;99.90
20457;DHT22;10387;51.102;6.848;2023-03-23T05:52:44;12.30;99.90
20457;DHT22;10387;51.102;6.848;2023-03-23T05:55:11;12.30;99.90
20457;DHT22;10387;51.102;6.848;2023-03-23T05:57:39;12.30;99.90
20457;DHT22;10387;51.102;6.848;2023-03-23T06:00:13;12.40;99.90
20457;DHT22;10387;51.102;6.848;2023-03-23T06:02:41;12.30;99.90
20457;DHT22;10387;51.102;6.848;2023-03-23T06:05:15;12.30;99.90
20457;DHT22;10387;51.102;6.848;2023-03-23T06:07:44;12.30;99.90
20457;DHT22;10387;51.102;6.848;2023-03-23T06:10:10;12.30;99.90
20457;DHT22;10387;51.102;6.848;2023-03-23T06:12:38;12.30;99.90
20457;DHT22;10387;51.102;6.848;2023-03-23T06:15:19;12.40;99.90
20457;DHT22;10387;51.102;6.848;2023-03-23T06:18:05;12.40;99.90
20457;DHT22;10387;51.102;6.848;2023-03-23T06:20:38;12.50;99.90
20457;DHT22;10387;51.102;6.848;2023-03-23T06:23:18;12.50;99.90
20457;DHT22;10387;51.102;6.848;2023-03-23T06:25:45;12.60;99.90
20457;DHT22;10387;51.102;6.848;2023-03-23T06:28:11;12.60;99.90
20457;DHT22;10387;51.102;6.848;2023-03-23T06:30:41;12.60;99.90
20457;DHT22;10387;51.102;6.848;2023-03-23T06:33:07;12.70;99.90
20457;DHT22;10387;51.102;6.848;2023-03-23T06:36:01;12.70;99.90
20457;DHT22;10387;51.102;6.848;2023-03-23T06:38:47;12.80;99.90
20457;DHT22;10387;51.102;6.848;2023-03-23T06:41:14;12.90;99.90
20457;DHT22;10387;51.102;6.848;2023-03-23T06:43:39;12.90;99.90
20457;DHT22;10387;51.102;6.848;2023-03-23T06:46:11;12.90;99.90
20457;DHT22;10387;51.102;6.848;2023-03-23T06:48:40;12.90;99.90
20457;DHT22;10387;51.102;6.848;2023-03-23T06:51:08;12.90;99.90
20457;DHT22;10387;51.102;6.848;2023-03-23T06:53:36;12.90;99.90
20457;DHT22;10387;51.102;6.848;2023-03-23T06:56:03;12.90;99.90
20457;DHT22;10387;51.102;6.848;2023-03-23T06:58:31;12.90;99.90
20457;DHT22;10387;51.102;6.848;2023-03-23T07:00:57;12.90;99.90
20457;DHT22;10387;51.102;6.848;2023-03-23T07:03:29;13.00;99.90
20457;DHT22;10387;51.102;6.848;2023-03-23T07:05:57;13.00;99.90
20457;DHT22;10387;51.102;6.848;2023-03-23T07:08:26;13.00;99.90
20457;DHT22;10387;51.102;6.848;2023-03-23T07:10:52;13.10;99.90
20457;DHT22;10387;51.102;6.848;2023-03-23T07:13:21;13.10;99.90
20457;DHT22;10387;51.102;6.848;2023-03-23T07:15:51;13.00;99.90
20457;DHT22;10387;51.102;6.848;2023-03-23T07:18:17;13.10;99.90
20457;DHT22;10387;51.102;6.848;2023-03-23T07:20:49;13.10;99.90
20457;DHT22;10387;51.102;6.848;2023-03-23T07:23:16;13.20;99.90
20457;DHT22;10387;51.102;6.848;2023-03-23T07:25:47;13.20;99.90
20457;DHT22;10387;51.102;6.848;2023-03-23T07:28:18;13.30;99.90
20457;DHT22;10387;51.102;6.848;2023-03-23T07:30:44;13.40;99.90
20457;DHT22;10387;51.102;6.848;2023-03-23T07:33:10;13.40;99.90
20457;DHT22;10387;51.102;6.848;2023-03-23T07:35:36;13.50;99.90
20457;DHT22;10387;51.102;6.848;2023-03-23T07:38:06;13.50;99.90
20457;DHT22;10387;51.102;6.848;2023-03-23T07:40:33;13.50;99.90
20457;DHT22;10387;51.102;6.848;2023-03-23T07:43:03;13.50;99.90
20457;DHT22;10387;51.102;6.848;2023-03-23T07:45:58;13.50;99.90
20457;DHT22;10387;51.102;6.848;2023-03-23T07:48:32;13.50;99.90
20457;DHT22;10387;51.102;6.848;2023-03-23T07:50:58;13.60;99.90
20457;DHT22;10387;51.102;6.848;2023-03-23T07:53:26;13.60;99.90
20457;DHT22;10387;51.102;6.848;2023-03-23T07:55:59;13.60;99.90
20457;DHT22;10387;51.102;6.848;2023-03-23T07:58:47;13.70;99.90
20457;DHT22;10387;51.102;6.848;2023-03-23T08:01:13;13.70;99.90
20457;DHT22;10387;51.102;6.848;2023-03-23T08:03:41;13.70;99.90
20457;DHT22;10387;51.102;6.848;2023-03-23T08:06:16;13.70;99.90
20457;DHT22;10387;51.102;6.848;2023-03-23T08:08:48;13.80;99.90
20457;DHT22;10387;51.102;6.848;2023-03-23T08:11:32;13.80;99.90
20457;DHT22;10387;51.102;6.848;2023-03-23T08:14:14;13.80;99.90
20457;DHT22;10387;51.102;6.848;2023-03-23T08:16:57;13.80;99.90
20457;DHT22;10387;51.102;6.848;2023-03-23T08:19:42;13.80;99.90
20457;DHT22;10387;51.102;6.848;2023-03-23T08:22:34;14.00;99.90
20457;DHT22;10387;51.102;6.848;2023-03-23T08:25:30;14.00;99.90
20457;DHT22;10387;51.102;6.848;2023-03-23T08:28:32;14.10;99.90
20457;DHT22;10387;51.102;6.848;2023-03-23T08:31:17;14.20;99.90
20457;DHT22;10387;51.102;6.848;2023-03-23T08:34:16;14.10;99.90
20457;DHT22;10387;51.102;6.848;2023-03-23T08:37:00;14.20;99.90
20457;DHT22;10387;51.102;6.848;2023-03-23T08:39:26;14.20;99.90
20457;DHT22;10387;51.102;6.848;2023-03-23T08:42:18;14.30;99.90
20457;DHT22;10387;51.102;6.848;2023-03-23T08:44:58;14.20;99.90
20457;DHT22;10387;51.102;6.848;2023-03-23T08:47:56;14.30;99.90
20457;DHT22;10387;51.102;6.848;2023-03-23T08:50:36;14.40;99.90
20457;DHT22;10387;51.102;6.848;2023-03-23T08:53:20;14.50;99.90
20457;DHT22;10387;51.102;6.848;2023-03-23T08:55:46;14.50;99.90
20457;DHT22;10387;51.102;6.848;2023-03-23T08:58:36;14.60;99.90
20457;DHT22;10387;51.102;6.848;2023-03-23T09:01:14;14.60;99.90
20457;DHT22;10387;51.102;6.848;2023-03-23T09:03:43;14.70;99.90
20457;DHT22;10387;51.102;6.848;2023-03-23T09:06:27;14.60;99.90
20457;DHT22;10387;51.102;6.848;2023-03-23T09:08:53;14.60;99.90
20457;DHT22;10387;51.102;6.848;2023-03-23T09:11:20;14.60;99.90
20457;DHT22;10387;51.102;6.848;2023-03-23T09:13:46;14.60;99.90
20457;DHT22;10387;51.102;6.848;2023-03-23T09:16:12;14.60;99.90
20457;DHT22;10387;51.102;6.848;2023-03-23T09:18:37;14.70;99.90
20457;DHT22;10387;51.102;6.848;2023-03-23T09:21:03;14.80;99.90
20457;DHT22;10387;51.102;6.848;2023-03-23T09:23:29;14.90;99.90
20457;DHT22;10387;51.102;6.848;2023-03-23T09:25:55;15.00;99.90
20457;DHT22;10387;51.102;6.848;2023-03-23T09:28:21;15.00;99.90
20457;DHT22;10387;51.102;6.848;2023-03-23T09:30:46;15.10;99.90
20457;DHT22;10387;51.102;6.848;2023-03-23T09:33:12;15.10;99.90
20457;DHT22;10387;51.102;6.848;2023-03-23T09:35:38;15.00;99.90
20457;DHT22;10387;51.102;6.848;2023-03-23T09:38:07;14.80;99.90
20457;DHT22;10387;51.102;6.848;2023-03-23T09:40:44;14.80;99.90
20457;DHT22;10387;51.102;6.848;2023-03-23T09:43:22;14.70;99.90
20457;DHT22;10387;51.102;6.848;2023-03-23T09:51:16;14.60;99.90
20457;DHT22;10387;51.102;6.848;2023-03-23T09:53:45;14.60;99.90
20457;DHT22;10387;51.102;6.848;2023-03-23T09:56:14;14.60;99.90
20457;DHT22;10387;51.102;6.848;2023-03-23T10:01:06;14.60;99.90
20457;DHT22;10387;51.102;6.848;2023-03-23T10:03:39;14.60;99.90
20457;DHT22;10387;51.102;6.848;2023-03-23T10:06:05;14.80;99.90
20457;DHT22;10387;51.102;6.848;2023-03-23T10:08:33;15.00;99.90
20457;DHT22;10387;51.102;6.848;2023-03-23T10:16:30;15.00;99.90
20457;DHT22;10387;51.102;6.848;2023-03-23T10:21:44;14.80;99.90
20457;DHT22;10387;51.102;6.848;2023-03-23T10:24:14;14.80;99.90
20457;DHT22;10387;51.102;6.848;2023-03-23T10:26:44;14.60;99.90
20457;DHT22;10387;51.102;6.848;2023-03-23T10:31:39;14.50;99.90
20457;DHT22;10387;51.102;6.848;2023-03-23T10:34:12;14.30;99.90
20457;DHT22;10387;51.102;6.848;2023-03-23T10:36:48;14.30;99.90
20457;DHT22;10387;51.102;6.848;2023-03-23T10:39:19;14.20;99.90
20457;DHT22;10387;51.102;6.848;2023-03-23T10:41:47;14.10;99.90
20457;DHT22;10387;51.102;6.848;2023-03-23T10:44:15;14.00;99.90
20457;DHT22;10387;51.102;6.848;2023-03-23T10:46:45;13.60;99.90
20457;DHT22;10387;51.102;6.848;2023-03-23T10:49:19;12.90;99.90
20457;DHT22;10387;51.102;6.848;2023-03-23T10:51:56;12.30;99.90
20457;DHT22;10387;51.102;6.848;2023-03-23T10:54:27;11.90;99.90
20457;DHT22;10387;51.102;6.848;2023-03-23T10:56:53;11.80;99.90
20457;DHT22;10387;51.102;6.848;2023-03-23T10:59:20;11.60;99.90
20457;DHT22;10387;51.102;6.848;2023-03-23T11:01:48;11.40;99.90
20457;DHT22;10387;51.102;6.848;2023-03-23T11:04:15;11.40;99.90
20457;DHT22;10387;51.102;6.848;2023-03-23T11:06:45;11.40;99.90
20457;DHT22;10387;51.102;6.848;2023-03-23T11:09:15;11.60;99.90
20457;DHT22;10387;51.102;6.848;2023-03-23T11:11:47;11.70;99.90
20457;DHT22;10387;51.102;6.848;2023-03-23T11:14:27;11.60;99.90
20457;DHT22;10387;51.102;6.848;2023-03-23T11:16:57;11.50;99.90
20457;DHT22;10387;51.102;6.848;2023-03-23T11:19:27;11.60;99.90
20457;DHT22;10387;51.102;6.848;2023-03-23T11:21:53;11.70;99.90
20457;DHT22;10387;51.102;6.848;2023-03-23T11:24:23;11.70;99.90
20457;DHT22;10387;51.102;6.848;2023-03-23T11:26:50;11.60;99.90
20457;DHT22;10387;51.102;6.848;2023-03-23T11:29:17;11.40;99.90
20457;DHT22;10387;51.102;6.848;2023-03-23T11:31:50;11.40;99.90
20457;DHT22;10387;51.102;6.848;2023-03-23T11:34:25;11.40;99.90
20457;DHT22;10387;51.102;6.848;2023-03-23T11:36:57;11.50;99.90
20457;DHT22;10387;51.102;6.848;2023-03-23T11:39:28;11.40;99.90
20457;DHT22;10387;51.102;6.848;2023-03-23T11:41:55;11.40;99.90
20457;DHT22;10387;51.102;6.848;2023-03-23T11:44:21;11.50;99.90
20457;DHT22;10387;51.102;6.848;2023-03-23T11:49:55;11.60;99.90
20457;DHT22;10387;51.102;6.848;2023-03-23T11:52:25;11.50;99.90
20457;DHT22;10387;51.102;6.848;2023-03-23T11:55:09;11.50;99.90
20457;DHT22;10387;51.102;6.848;2023-03-23T11:57:37;11.50;99.90
20457;DHT22;10387;51.102;6.848;2023-03-23T12:00:16;11.50;99.90
20457;DHT22;10387;51.102;6.848;2023-03-23T12:05:33;11.60;99.90
20457;DHT22;10387;51.102;6.848;2023-03-23T12:08:06;12.00;99.90
20457;DHT22;10387;51.102;6.848;2023-03-23T12:10:39;12.60;99.90
20457;DHT22;10387;51.102;6.848;2023-03-23T12:15:44;13.50;99.90
20457;DHT22;10387;51.102;6.848;2023-03-23T12:21:02;14.00;99.90
20457;DHT22;10387;51.102;6.848;2023-03-23T12:26:34;14.40;99.90
20457;DHT22;10387;51.102;6.848;2023-03-23T12:31:38;15.10;99.90
20457;DHT22;10387;51.102;6.848;2023-03-23T12:34:09;15.30;99.90
20457;DHT22;10387;51.102;6.848;2023-03-23T12:36:41;15.60;99.90
20457;DHT22;10387;51.102;6.848;2023-03-23T12:49:58;15.80;99.90
20457;DHT22;10387;51.102;6.848;2023-03-23T12:52:37;15.90;99.90
20457;DHT22;10387;51.102;6.848;2023-03-23T13:00:30;14.70;99.90
20457;DHT22;10387;51.102;6.848;2023-03-23T13:03:01;14.30;99.90
20457;DHT22;10387;51.102;6.848;2023-03-23T13:05:30;14.00;99.90
20457;DHT22;10387;51.102;6.848;2023-03-23T13:10:28;13.40;99.90
20457;DHT22;10387;51.102;6.848;2023-03-23T13:12:54;13.30;99.90
20457;DHT22;10387;51.102;6.848;2023-03-23T13:23:02;13.40;99.90
20457;DHT22;10387;51.102;6.848;2023-03-23T13:25:50;13.50;99.90
20457;DHT22;10387;51.102;6.848;2023-03-23T13:28:17;13.50;99.90
20457;DHT22;10387;51.102;6.848;2023-03-23T13:30:53;13.50;99.90
20457;DHT22;10387;51.102;6.848;2023-03-23T13:33:18;13.60;99.90
20457;DHT22;10387;51.102;6.848;2023-03-23T13:35:45;13.60;99.90
20457;DHT22;10387;51.102;6.848;2023-03-23T13:38:12;13.70;99.90
20457;DHT22;10387;51.102;6.848;2023-03-23T13:40:42;13.80;99.90
20457;DHT22;10387;51.102;6.848;2023-03-23T13:43:08;13.90;99.90
20457;DHT22;10387;51.102;6.848;2023-03-23T13:45:52;14.00;99.90
20457;DHT22;10387;51.102;6.848;2023-03-23T13:48:20;14.10;99.90
20457;DHT22;10387;51.102;6.848;2023-03-23T13:50:56;14.30;99.90
20457;DHT22;10387;51.102;6.848;2023-03-23T13:53:42;14.50;99.90
20457;DHT22;10387;51.102;6.848;2023-03-23T13:56:20;14.50;99.90
20457;DHT22;10387;51.102;6.848;2023-03-23T13:58:50;14.40;99.90
20457;DHT22;10387;51.102;6.848;2023-03-23T14:01:18;14.20;99.90
20457;DHT22;10387;51.102;6.848;2023-03-23T14:03:48;14.10;99.90
20457;DHT22;10387;51.102;6.848;2023-03-23T14:06:22;14.00;99.90
20457;DHT22;10387;51.102;6.848;2023-03-23T14:12:02;14.10;99.90
20457;DHT22;10387;51.102;6.848;2023-03-23T14:14:56;14.10;99.90
20457;DHT22;10387;51.102;6.848;2023-03-23T14:17:26;14.10;99.90
20457;DHT22;10387;51.102;6.848;2023-03-23T14:19:54;14.20;99.90
20457;DHT22;10387;51.102;6.848;2023-03-23T14:22:31;14.30;99.90
20457;DHT22;10387;51.102;6.848;2023-03-23T14:25:01;14.50;99.90
20457;DHT22;10387;51.102;6.848;2023-03-23T14:27:34;14.80;99.90
20457;DHT22;10387;51.102;6.848;2023-03-23T14:30:22;15.10;99.90
20457;DHT22;10387;51.102;6.848;2023-03-23T14:32:47;15.10;99.90
20457;DHT22;10387;51.102;6.848;2023-03-23T14:35:18;15.00;99.90
20457;DHT22;10387;51.102;6.848;2023-03-23T14:37:45;15.10;99.90
20457;DHT22;10387;51.102;6.848;2023-03-23T14:40:13;15.00;99.90
20457;DHT22;10387;51.102;6.848;2023-03-23T14:42:39;14.80;99.90
20457;DHT22;10387;51.102;6.848;2023-03-23T14:45:05;14.70;99.90
20457;DHT22;10387;51.102;6.848;2023-03-23T14:47:35;14.60;99.90
20457;DHT22;10387;51.102;6.848;2023-03-23T14:50:05;14.50;99.90
20457;DHT22;10387;51.102;6.848;2023-03-23T14:52:35;14.30;99.90
20457;DHT22;10387;51.102;6.848;2023-03-23T14:55:11;14.30;99.90
20457;DHT22;10387;51.102;6.848;2023-03-23T14:57:40;14.30;99.90
20457;DHT22;10387;51.102;6.848;2023-03-23T15:00:10;14.30;99.90
20457;DHT22;10387;51.102;6.848;2023-03-23T15:02:38;14.20;99.90
20457;DHT22;10387;51.102;6.848;2023-03-23T15:05:12;14.20;99.90
20457;DHT22;10387;51.102;6.848;2023-03-23T15:07:39;14.30;99.90
20457;DHT22;10387;51.102;6.848;2023-03-23T15:10:07;14.20;99.90
20457;DHT22;10387;51.102;6.848;2023-03-23T15:12:33;14.30;99.90
20457;DHT22;10387;51.102;6.848;2023-03-23T15:15:00;14.40;99.90
20457;DHT22;10387;51.102;6.848;2023-03-23T15:17:28;14.50;99.90
20457;DHT22;10387;51.102;6.848;2023-03-23T15:19:55;14.70;99.90
20457;DHT22;10387;51.102;6.848;2023-03-23T15:24:51;15.00;99.90
20457;DHT22;10387;51.102;6.848;2023-03-23T15:27:27;14.90;99.90
20457;DHT22;10387;51.102;6.848;2023-03-23T15:29:53;15.00;99.90
20457;DHT22;10387;51.102;6.848;2023-03-23T15:32:21;14.90;99.90
20457;DHT22;10387;51.102;6.848;2023-03-23T15:34:47;15.00;99.90
20457;DHT22;10387;51.102;6.848;2023-03-23T15:37:20;15.00;99.90
20457;DHT22;10387;51.102;6.848;2023-03-23T15:39:46;15.10;99.90
20457;DHT22;10387;51.102;6.848;2023-03-23T15:42:28;15.20;99.90
20457;DHT22;10387;51.102;6.848;2023-03-23T15:47:37;15.30;99.90
20457;DHT22;10387;51.102;6.848;2023-03-23T15:50:13;15.30;99.90
20457;DHT22;10387;51.102;6.848;2023-03-23T15:52:39;15.30;99.90
20457;DHT22;10387;51.102;6.848;2023-03-23T15:55:28;15.30;99.90
20457;DHT22;10387;51.102;6.848;2023-03-23T15:57:53;15.30;99.90
20457;DHT22;10387;51.102;6.848;2023-03-23T16:00:19;15.30;99.90
20457;DHT22;10387;51.102;6.848;2023-03-23T16:02:46;15.30;99.90
20457;DHT22;10387;51.102;6.848;2023-03-23T16:05:12;15.50;99.90
20457;DHT22;10387;51.102;6.848;2023-03-23T16:07:38;15.60;99.90
20457;DHT22;10387;51.102;6.848;2023-03-23T16:10:04;15.80;99.90
20457;DHT22;10387;51.102;6.848;2023-03-23T16:12:30;16.10;99.90
20457;DHT22;10387;51.102;6.848;2023-03-23T16:14:56;16.10;99.90
20457;DHT22;10387;51.102;6.848;2023-03-23T16:17:21;16.10;99.90
20457;DHT22;10387;51.102;6.848;2023-03-23T16:19:47;16.00;99.90
20457;DHT22;10387;51.102;6.848;2023-03-23T16:22:13;16.00;99.90
20457;DHT22;10387;51.102;6.848;2023-03-23T16:24:38;16.10;99.90
20457;DHT22;10387;51.102;6.848;2023-03-23T16:27:04;16.30;99.90
20457;DHT22;10387;51.102;6.848;2023-03-23T16:29:30;16.40;99.90
20457;DHT22;10387;51.102;6.848;2023-03-23T16:31:56;16.40;99.90
20457;DHT22;10387;51.102;6.848;2023-03-23T16:34:22;16.60;99.90
20457;DHT22;10387;51.102;6.848;2023-03-23T16:36:47;16.60;99.90
20457;DHT22;10387;51.102;6.848;2023-03-23T16:39:13;16.80;99.90
20457;DHT22;10387;51.102;6.848;2023-03-23T16:41:43;17.00;99.90
20457;DHT22;10387;51.102;6.848;2023-03-23T16:44:09;17.00;99.90
20457;DHT22;10387;51.102;6.848;2023-03-23T16:46:34;17.00;99.90
20457;DHT22;10387;51.102;6.848;2023-03-23T16:49:00;16.90;99.90
20457;DHT22;10387;51.102;6.848;2023-03-23T16:51:26;16.80;99.90
20457;DHT22;10387;51.102;6.848;2023-03-23T16:53:52;16.60;99.90
20457;DHT22;10387;51.102;6.848;2023-03-23T16:56:17;16.30;99.90
20457;DHT22;10387;51.102;6.848;2023-03-23T16:58:43;16.00;99.90
20457;DHT22;10387;51.102;6.848;2023-03-23T17:01:08;15.80;99.90
20457;DHT22;10387;51.102;6.848;2023-03-23T17:03:35;15.60;99.90
20457;DHT22;10387;51.102;6.848;2023-03-23T17:06:01;15.50;99.90
20457;DHT22;10387;51.102;6.848;2023-03-23T17:08:30;15.40;99.90
20457;DHT22;10387;51.102;6.848;2023-03-23T17:10:56;15.40;99.90
20457;DHT22;10387;51.102;6.848;2023-03-23T17:13:22;15.30;99.90
20457;DHT22;10387;51.102;6.848;2023-03-23T17:15:51;15.20;99.90
20457;DHT22;10387;51.102;6.848;2023-03-23T17:18:17;15.10;99.90
20457;DHT22;10387;51.102;6.848;2023-03-23T17:20:43;15.10;99.90
20457;DHT22;10387;51.102;6.848;2023-03-23T17:23:09;15.00;99.90
20457;DHT22;10387;51.102;6.848;2023-03-23T17:25:35;15.00;99.90
20457;DHT22;10387;51.102;6.848;2023-03-23T17:28:01;15.00;99.90